首页
METAR-TAF:

METAR-TAF

机场 :

苏丹阿都哈林机场

亚罗士打, 马来西亚

纬度: 06-11-40N, 经度: 100-24-03E, 海拔: 5米

当前天气观测

该预报发布于58分钟前的18:00 UTC
风速2节,风向多变
温度 26°C
湿度 89%
气压 1012 hPa
能见度10公里或以上
散云层高于3000英尺
散云层高于14000英尺
多云层高于28000英尺

METAR: WMKA 211800Z VRB02KT 9999 SCT030 SCT140 BKN280 26/24 Q1012

时间: 02:58 (18:58 UTC)

预报

该预报发布于1小时和58分钟前的17:00 UTC
预报有效从21日的 18点(UTC)到 22日的 18点(UTC)
风速5节,风向东转东北
能见度10公里或以上
少量云层高于3000英尺
多云层高于30000英尺

TAF: WMKA 211700Z 2118/2218 06005KT 9999 FEW030 BKN300

超过4000个机场的气象观测和天气预报(METAR&TAF报告)。

可查询的气象台以黄色和红色小点在地图上表示。

将鼠标移到小点上方,可查看气象台名称。

然后点击查看天气观测和预报。

如需切换地图:点击带黑十字的绿色按钮放大地图;点击带横线的绿色按钮缩小地图;或者点击绿色箭头查看邻近地区的地图。


METAR-TAF: